Terminal Aerodrome Forecast
Issued by NWS Cleveland, OH

Home | Current Version | Previous Version | Graphics & Text | Print | Product List | Glossary On
Versions: 1 2 3 4 5 6 7 8 9 10 11 12 13 14 15 16 17 18 19 20 21 22 23 24 25
000
FTUS41 KCLE 251900 AAA
TAFYNG
TAF AMD
KYNG 251927Z 2519/2618 21016G24KT P6SM BKN030
      TEMPO 2520/2524 BKN035
     FM260000 25007KT P6SM SCT035 BKN200
     FM260700 VRB03KT 3SM BR SCT015 BKN120
     FM261200 03004KT 3SM -SHRA BR BKN009 OVC020=

USA.gov is the U.S. government's official web portal to all federal, state and local government web resources and services.